Ternopil, Ukraine
Current Conditions -  °F | °C
As of 6:00 PM on Thursday 18 Dec 2014 (Local Time) from UKLI Reporting Station
Haze Haze  
Wind Chill: 34°   Ceiling: 4000
Heat Index: 34°   Visibility: 0.81mi
Dew Point: 32°   Wind: 2mph
Humidity: 93%   Direction: 190°S
Pressure: 29.97"   Gusts: NA
Location:  49.55°N, 25.58°E
Report Text: UKLI 181500Z 19001MPS 1300 R28/1200V1300D BR BKN040 01/00 Q1015 NOSIG
Loading
Personal Weather Stations






























Interactive Weather Map New forecast layout! Learn more

10-Day Weather Forecast

Advertisements
Track Severe Weather on mobile